sensor_id;sensor_type;location;lat;lon;timestamp;pressure;altitude;pressure_sealevel;temperature;humidity
84136;BME280;74238;50.566;7.262;2023-12-14T00:00:24;99989.09;;;4.08;90.26
84136;BME280;74238;50.566;7.262;2023-12-14T00:02:49;100044.03;;;4.40;90.33
84136;BME280;74238;50.566;7.262;2023-12-14T00:05:15;99996.94;;;4.08;90.69
84136;BME280;74238;50.566;7.262;2023-12-14T00:07:40;100057.97;;;4.40;90.71
84136;BME280;74238;50.566;7.262;2023-12-14T00:10:06;99993.41;;;4.01;90.39
84136;BME280;74238;50.566;7.262;2023-12-14T00:12:31;100057.06;;;4.35;90.90
84136;BME280;74238;50.566;7.262;2023-12-14T00:14:57;100040.50;;;4.26;91.11
84136;BME280;74238;50.566;7.262;2023-12-14T00:17:22;100032.66;;;4.19;90.90
84136;BME280;74238;50.566;7.262;2023-12-14T00:19:47;100059.69;;;4.32;90.73
84136;BME280;74238;50.566;7.262;2023-12-14T00:22:13;100049.22;;;4.31;90.45
84136;BME280;74238;50.566;7.262;2023-12-14T00:24:38;100012.59;;;4.06;90.29
84136;BME280;74238;50.566;7.262;2023-12-14T00:27:03;100075.38;;;4.35;90.78
84136;BME280;74238;50.566;7.262;2023-12-14T00:29:29;100085.84;;;4.40;90.44
84136;BME280;74238;50.566;7.262;2023-12-14T00:31:54;100013.47;;;3.99;90.18
84136;BME280;74238;50.566;7.262;2023-12-14T00:34:19;100030.88;;;4.05;90.35
84136;BME280;74238;50.566;7.262;2023-12-14T00:36:45;100090.19;;;4.38;91.04
84136;BME280;74238;50.566;7.262;2023-12-14T00:39:10;100094.53;;;4.36;90.94
84136;BME280;74238;50.566;7.262;2023-12-14T00:41:35;100045.72;;;4.10;90.78
84136;BME280;74238;50.566;7.262;2023-12-14T00:44:01;100084.06;;;4.27;90.45
84136;BME280;74238;50.566;7.262;2023-12-14T00:46:26;100063.13;;;4.17;90.58
84136;BME280;74238;50.566;7.262;2023-12-14T00:48:52;100106.75;;;4.40;90.52
84136;BME280;74238;50.566;7.262;2023-12-14T00:51:17;100113.72;;;4.41;91.02
84136;BME280;74238;50.566;7.262;2023-12-14T00:53:42;100086.66;;;4.25;90.98
84136;BME280;74238;50.566;7.262;2023-12-14T00:56:08;100117.19;;;4.43;90.62
84136;BME280;74238;50.566;7.262;2023-12-14T00:58:34;100118.94;;;4.44;90.54
84136;BME280;74238;50.566;7.262;2023-12-14T01:00:59;100111.97;;;4.40;91.01
84136;BME280;74238;50.566;7.262;2023-12-14T01:03:24;100127.66;;;4.46;91.25
84136;BME280;74238;50.566;7.262;2023-12-14T01:05:50;100111.06;;;4.36;90.03
84136;BME280;74238;50.566;7.262;2023-12-14T01:08:15;100128.53;;;4.43;90.41
84136;BME280;74238;50.566;7.262;2023-12-14T01:10:40;100126.75;;;4.39;90.94
84136;BME280;74238;50.566;7.262;2023-12-14T01:13:06;100097.97;;;4.26;90.50
84136;BME280;74238;50.566;7.262;2023-12-14T01:15:31;100077.91;;;4.08;90.99
84136;BME280;74238;50.566;7.262;2023-12-14T01:17:57;100111.03;;;4.29;90.99
84136;BME280;74238;50.566;7.262;2023-12-14T01:20:22;100125.91;;;4.37;90.94
84136;BME280;74238;50.566;7.262;2023-12-14T01:22:48;100164.28;;;4.58;90.78
84136;BME280;74238;50.566;7.262;2023-12-14T01:25:14;100152.94;;;4.52;90.51
84136;BME280;74238;50.566;7.262;2023-12-14T01:27:39;100168.63;;;4.61;91.29
84136;BME280;74238;50.566;7.262;2023-12-14T01:30:05;100130.22;;;4.29;90.51
84136;BME280;74238;50.566;7.262;2023-12-14T01:32:30;100142.44;;;4.39;90.93
84136;BME280;74238;50.566;7.262;2023-12-14T01:34:55;100194.81;;;4.69;90.45
84136;BME280;74238;50.566;7.262;2023-12-14T01:37:21;100198.31;;;4.71;90.35
84136;BME280;74238;50.566;7.262;2023-12-14T01:39:46;100202.66;;;4.72;91.19
84136;BME280;74238;50.566;7.262;2023-12-14T01:42:12;100191.31;;;4.63;90.98
84136;BME280;74238;50.566;7.262;2023-12-14T01:44:37;100219.25;;;4.75;91.31
84136;BME280;74238;50.566;7.262;2023-12-14T01:47:02;100153.78;;;4.43;91.06
84136;BME280;74238;50.566;7.262;2023-12-14T01:49:28;100221.00;;;4.78;91.28
84136;BME280;74238;50.566;7.262;2023-12-14T01:51:53;100224.47;;;4.80;91.29
84136;BME280;74238;50.566;7.262;2023-12-14T01:54:18;100227.97;;;4.82;91.66
84136;BME280;74238;50.566;7.262;2023-12-14T01:56:44;100159.88;;;4.43;90.80
84136;BME280;74238;50.566;7.262;2023-12-14T01:59:09;100173.84;;;4.49;91.24
84136;BME280;74238;50.566;7.262;2023-12-14T02:01:39;100230.59;;;4.88;90.74
84136;BME280;74238;50.566;7.262;2023-12-14T02:04:06;100239.34;;;4.90;90.78
84136;BME280;74238;50.566;7.262;2023-12-14T02:06:32;100222.72;;;4.77;90.96
84136;BME280;74238;50.566;7.262;2023-12-14T02:08:58;100155.53;;;4.41;90.80
84136;BME280;74238;50.566;7.262;2023-12-14T02:11:23;100232.38;;;4.89;90.59
84136;BME280;74238;50.566;7.262;2023-12-14T02:13:48;100228.00;;;4.86;91.87
84136;BME280;74238;50.566;7.262;2023-12-14T02:16:14;100255.06;;;4.98;90.51
84136;BME280;74238;50.566;7.262;2023-12-14T02:18:40;100262.91;;;4.98;90.93
84136;BME280;74238;50.566;7.262;2023-12-14T02:21:05;100261.16;;;4.98;90.94
84136;BME280;74238;50.566;7.262;2023-12-14T02:23:31;100258.53;;;4.98;91.24
84136;BME280;74238;50.566;7.262;2023-12-14T02:25:56;100259.41;;;4.97;91.07
84136;BME280;74238;50.566;7.262;2023-12-14T02:28:21;100196.53;;;4.59;91.50
84136;BME280;74238;50.566;7.262;2023-12-14T02:30:47;100269.88;;;4.99;90.69
84136;BME280;74238;50.566;7.262;2023-12-14T02:33:12;100278.59;;;4.99;91.32
84136;BME280;74238;50.566;7.262;2023-12-14T02:35:37;100222.72;;;4.71;91.22
84136;BME280;74238;50.566;7.262;2023-12-14T02:38:03;100276.88;;;4.97;91.34
84136;BME280;74238;50.566;7.262;2023-12-14T02:40:28;100282.09;;;4.98;92.20
84136;BME280;74238;50.566;7.262;2023-12-14T02:42:53;100288.22;;;5.05;91.18
84136;BME280;74238;50.566;7.262;2023-12-14T02:45:19;100273.38;;;5.01;90.83
84136;BME280;74238;50.566;7.262;2023-12-14T02:47:44;100276.84;;;4.98;92.02
84136;BME280;74238;50.566;7.262;2023-12-14T02:50:11;100269.00;;;4.92;91.89
84136;BME280;74238;50.566;7.262;2023-12-14T02:52:37;100271.59;;;4.91;91.64
84136;BME280;74238;50.566;7.262;2023-12-14T02:55:02;100241.06;;;4.79;91.60
84136;BME280;74238;50.566;7.262;2023-12-14T02:57:28;100242.78;;;4.83;91.50
84136;BME280;74238;50.566;7.262;2023-12-14T02:59:53;100298.69;;;5.13;92.09
84136;BME280;74238;50.566;7.262;2023-12-14T03:02:18;100291.72;;;5.05;91.53
84136;BME280;74238;50.566;7.262;2023-12-14T03:04:44;100268.09;;;4.85;91.34
84136;BME280;74238;50.566;7.262;2023-12-14T03:07:09;100318.78;;;5.17;91.73
84136;BME280;74238;50.566;7.262;2023-12-14T03:09:34;100287.34;;;5.00;91.54
84136;BME280;74238;50.566;7.262;2023-12-14T03:12:00;100314.44;;;5.19;92.23
84136;BME280;74238;50.566;7.262;2023-12-14T03:14:26;100328.34;;;5.21;90.85
84136;BME280;74238;50.566;7.262;2023-12-14T03:16:51;100320.53;;;5.16;91.68
84136;BME280;74238;50.566;7.262;2023-12-14T03:19:17;100271.59;;;4.86;91.37
84136;BME280;74238;50.566;7.262;2023-12-14T03:21:43;100331.88;;;5.23;92.17
84136;BME280;74238;50.566;7.262;2023-12-14T03:24:08;100328.34;;;5.18;92.28
84136;BME280;74238;50.566;7.262;2023-12-14T03:26:34;100326.63;;;5.14;91.22
84136;BME280;74238;50.566;7.262;2023-12-14T03:29:00;100326.63;;;5.14;91.85
84136;BME280;74238;50.566;7.262;2023-12-14T03:31:25;100300.38;;;4.94;91.89
84136;BME280;74238;50.566;7.262;2023-12-14T03:33:50;100347.56;;;5.26;91.10
84136;BME280;74238;50.566;7.262;2023-12-14T03:36:16;100351.06;;;5.25;90.94
84136;BME280;74238;50.566;7.262;2023-12-14T03:38:41;100359.81;;;5.27;91.26
84136;BME280;74238;50.566;7.262;2023-12-14T03:41:07;100359.78;;;5.22;91.58
84136;BME280;74238;50.566;7.262;2023-12-14T03:43:32;100321.31;;;5.01;91.65
84136;BME280;74238;50.566;7.262;2023-12-14T03:45:57;100368.53;;;5.30;91.79
84136;BME280;74238;50.566;7.262;2023-12-14T03:48:23;100375.50;;;5.31;91.44
84136;BME280;74238;50.566;7.262;2023-12-14T03:50:48;100331.81;;;5.07;91.83
84136;BME280;74238;50.566;7.262;2023-12-14T03:53:13;100389.50;;;5.32;91.80
84136;BME280;74238;50.566;7.262;2023-12-14T03:55:39;100390.38;;;5.32;91.59
84136;BME280;74238;50.566;7.262;2023-12-14T03:58:04;100396.47;;;5.33;92.28
84136;BME280;74238;50.566;7.262;2023-12-14T04:00:30;100378.97;;;5.26;91.87
84136;BME280;74238;50.566;7.262;2023-12-14T04:02:55;100396.47;;;5.36;91.65
84136;BME280;74238;50.566;7.262;2023-12-14T04:05:20;100394.72;;;5.37;91.10
84136;BME280;74238;50.566;7.262;2023-12-14T04:07:46;100347.53;;;5.06;91.36
84136;BME280;74238;50.566;7.262;2023-12-14T04:10:12;100401.72;;;5.38;92.40
84136;BME280;74238;50.566;7.262;2023-12-14T04:12:38;100417.41;;;5.39;92.30
84136;BME280;74238;50.566;7.262;2023-12-14T04:15:05;100406.94;;;5.36;91.18
84136;BME280;74238;50.566;7.262;2023-12-14T04:17:31;100413.97;;;5.40;91.22
84136;BME280;74238;50.566;7.262;2023-12-14T04:19:56;100427.91;;;5.42;91.51
84136;BME280;74238;50.566;7.262;2023-12-14T04:22:22;100406.03;;;5.28;92.16
84136;BME280;74238;50.566;7.262;2023-12-14T04:24:47;100432.28;;;5.42;92.11
84136;BME280;74238;50.566;7.262;2023-12-14T04:27:13;100440.16;;;5.43;91.59
84136;BME280;74238;50.566;7.262;2023-12-14T04:29:38;100448.00;;;5.43;91.70
84136;BME280;74238;50.566;7.262;2023-12-14T04:32:04;100344.84;;;4.89;91.41
84136;BME280;74238;50.566;7.262;2023-12-14T04:34:30;100442.75;;;5.45;92.42
84136;BME280;74238;50.566;7.262;2023-12-14T04:36:55;100420.00;;;5.27;91.47
84136;BME280;74238;50.566;7.262;2023-12-14T04:39:23;100414.75;;;5.19;92.15
84136;BME280;74238;50.566;7.262;2023-12-14T04:41:49;100415.63;;;5.21;91.53
84136;BME280;74238;50.566;7.262;2023-12-14T04:44:15;100435.72;;;5.31;92.23
84136;BME280;74238;50.566;7.262;2023-12-14T04:46:40;100457.59;;;5.47;92.25
84136;BME280;74238;50.566;7.262;2023-12-14T04:49:06;100427.84;;;5.22;92.25
84136;BME280;74238;50.566;7.262;2023-12-14T04:51:31;100459.31;;;5.39;92.24
84136;BME280;74238;50.566;7.262;2023-12-14T04:53:57;100478.56;;;5.50;91.29
84136;BME280;74238;50.566;7.262;2023-12-14T04:56:22;100479.41;;;5.51;92.27
84136;BME280;74238;50.566;7.262;2023-12-14T04:58:48;100489.91;;;5.51;91.79
84136;BME280;74238;50.566;7.262;2023-12-14T05:01:13;100500.38;;;5.51;92.08
84136;BME280;74238;50.566;7.262;2023-12-14T05:03:38;100441.78;;;5.23;92.42
84136;BME280;74238;50.566;7.262;2023-12-14T05:06:04;100478.53;;;5.47;92.53
84136;BME280;74238;50.566;7.262;2023-12-14T05:08:29;100447.97;;;5.39;92.45
84136;BME280;74238;50.566;7.262;2023-12-14T05:10:54;100503.13;;;5.82;91.66
84136;BME280;74238;50.566;7.262;2023-12-14T05:13:20;100488.25;;;5.81;92.75
84136;BME280;74238;50.566;7.262;2023-12-14T05:15:45;100455.06;;;5.69;92.67
84136;BME280;74238;50.566;7.262;2023-12-14T05:18:10;100530.31;;;6.16;92.61
84136;BME280;74238;50.566;7.262;2023-12-14T05:20:36;100445.47;;;5.80;92.36
84136;BME280;74238;50.566;7.262;2023-12-14T05:23:01;100531.22;;;6.30;92.37
84136;BME280;74238;50.566;7.262;2023-12-14T05:25:27;100545.22;;;6.38;92.84
84136;BME280;74238;50.566;7.262;2023-12-14T05:27:52;100536.47;;;6.42;92.48
84136;BME280;74238;50.566;7.262;2023-12-14T05:30:17;100499.75;;;6.16;92.46
84136;BME280;74238;50.566;7.262;2023-12-14T05:32:43;100519.00;;;6.34;92.43
84136;BME280;74238;50.566;7.262;2023-12-14T05:35:09;100549.63;;;6.52;92.83
84136;BME280;74238;50.566;7.262;2023-12-14T05:37:35;100548.75;;;6.53;92.76
84136;BME280;74238;50.566;7.262;2023-12-14T05:40:01;100555.72;;;6.54;93.01
84136;BME280;74238;50.566;7.262;2023-12-14T05:42:26;100553.97;;;6.50;93.20
84136;BME280;74238;50.566;7.262;2023-12-14T05:44:51;100526.00;;;6.33;92.99
84136;BME280;74238;50.566;7.262;2023-12-14T05:47:17;100553.97;;;6.50;93.33
84136;BME280;74238;50.566;7.262;2023-12-14T05:49:43;100578.47;;;6.55;93.46
84136;BME280;74238;50.566;7.262;2023-12-14T05:52:09;100509.34;;;6.14;92.77
84136;BME280;74238;50.566;7.262;2023-12-14T05:54:38;100572.31;;;6.45;93.37
84136;BME280;74238;50.566;7.262;2023-12-14T05:57:05;100589.84;;;6.52;93.52
84136;BME280;74238;50.566;7.262;2023-12-14T05:59:30;100592.44;;;6.52;93.30
84136;BME280;74238;50.566;7.262;2023-12-14T06:01:59;100555.69;;;6.20;92.90
84136;BME280;74238;50.566;7.262;2023-12-14T06:04:26;100606.44;;;6.50;93.19
84136;BME280;74238;50.566;7.262;2023-12-14T06:06:51;100613.41;;;6.48;92.96
84136;BME280;74238;50.566;7.262;2023-12-14T06:09:17;100550.38;;;6.08;92.35
84136;BME280;74238;50.566;7.262;2023-12-14T06:11:44;100572.25;;;6.13;92.99
84136;BME280;74238;50.566;7.262;2023-12-14T06:14:10;100616.91;;;6.42;92.81
84136;BME280;74238;50.566;7.262;2023-12-14T06:16:35;100557.38;;;6.03;92.66
84136;BME280;74238;50.566;7.262;2023-12-14T06:19:00;100548.63;;;5.96;92.56
84136;BME280;74238;50.566;7.262;2023-12-14T06:21:26;100637.03;;;6.44;93.07
84136;BME280;74238;50.566;7.262;2023-12-14T06:23:53;100644.88;;;6.44;93.04
84136;BME280;74238;50.566;7.262;2023-12-14T06:26:22;100646.63;;;6.46;92.45
84136;BME280;74238;50.566;7.262;2023-12-14T06:28:47;100650.13;;;6.44;92.07
84136;BME280;74238;50.566;7.262;2023-12-14T06:31:13;100651.84;;;6.39;92.88
84136;BME280;74238;50.566;7.262;2023-12-14T06:33:49;100678.97;;;6.44;91.93
84136;BME280;74238;50.566;7.262;2023-12-14T06:36:19;100645.72;;;6.30;92.77
84136;BME280;74238;50.566;7.262;2023-12-14T06:38:44;100680.72;;;6.44;92.31
84136;BME280;74238;50.566;7.262;2023-12-14T06:41:22;100675.47;;;6.39;92.89
84136;BME280;74238;50.566;7.262;2023-12-14T06:43:49;100684.22;;;6.43;91.92
84136;BME280;74238;50.566;7.262;2023-12-14T06:46:16;100695.59;;;6.43;92.18
84136;BME280;74238;50.566;7.262;2023-12-14T06:48:42;100657.91;;;6.20;92.04
84136;BME280;74238;50.566;7.262;2023-12-14T06:51:07;100701.69;;;6.42;91.98
84136;BME280;74238;50.566;7.262;2023-12-14T06:53:33;100670.13;;;6.21;92.42
84136;BME280;74238;50.566;7.262;2023-12-14T06:55:59;100706.94;;;6.39;92.86
84136;BME280;74238;50.566;7.262;2023-12-14T06:58:24;100687.59;;;6.17;92.34
84136;BME280;74238;50.566;7.262;2023-12-14T07:00:50;100727.03;;;6.37;91.71
84136;BME280;74238;50.566;7.262;2023-12-14T07:03:15;100730.50;;;6.35;92.60
84136;BME280;74238;50.566;7.262;2023-12-14T07:05:41;100721.75;;;6.28;92.35
84136;BME280;74238;50.566;7.262;2023-12-14T07:08:06;100750.59;;;6.31;92.22
84136;BME280;74238;50.566;7.262;2023-12-14T07:10:32;100724.28;;;6.11;92.39
84136;BME280;74238;50.566;7.262;2023-12-14T07:12:57;100762.84;;;6.31;92.19
84136;BME280;74238;50.566;7.262;2023-12-14T07:15:23;100778.53;;;6.29;92.06
84136;BME280;74238;50.566;7.262;2023-12-14T07:17:48;100772.47;;;6.30;92.44
84136;BME280;74238;50.566;7.262;2023-12-14T07:20:14;100775.94;;;6.29;92.46
84136;BME280;74238;50.566;7.262;2023-12-14T07:22:40;100780.31;;;6.27;92.87
84136;BME280;74238;50.566;7.262;2023-12-14T07:25:05;100796.88;;;6.26;93.01
84136;BME280;74238;50.566;7.262;2023-12-14T07:27:31;100792.50;;;6.22;92.69
84136;BME280;74238;50.566;7.262;2023-12-14T07:29:56;100795.13;;;6.19;92.77
84136;BME280;74238;50.566;7.262;2023-12-14T07:32:21;100804.75;;;6.23;92.80
84136;BME280;74238;50.566;7.262;2023-12-14T07:34:47;100810.84;;;6.20;92.67
84136;BME280;74238;50.566;7.262;2023-12-14T07:37:13;100813.44;;;6.17;92.78
84136;BME280;74238;50.566;7.262;2023-12-14T07:39:38;100813.44;;;6.14;92.51
84136;BME280;74238;50.566;7.262;2023-12-14T07:42:04;100741.41;;;5.65;92.48
84136;BME280;74238;50.566;7.262;2023-12-14T07:44:29;100822.09;;;6.07;92.88
84136;BME280;74238;50.566;7.262;2023-12-14T07:46:55;100836.13;;;6.11;92.89
84136;BME280;74238;50.566;7.262;2023-12-14T07:49:21;100836.09;;;6.09;92.89
84136;BME280;74238;50.566;7.262;2023-12-14T07:51:48;100849.19;;;6.08;92.26
84136;BME280;74238;50.566;7.262;2023-12-14T07:54:14;100800.00;;;5.77;93.08
84136;BME280;74238;50.566;7.262;2023-12-14T07:56:39;100851.81;;;6.06;92.91
84136;BME280;74238;50.566;7.262;2023-12-14T07:59:04;100858.81;;;6.06;92.86
84136;BME280;74238;50.566;7.262;2023-12-14T08:01:32;100822.72;;;5.77;92.67
84136;BME280;74238;50.566;7.262;2023-12-14T08:03:58;100870.13;;;6.05;92.10
84136;BME280;74238;50.566;7.262;2023-12-14T08:06:23;100885.88;;;6.05;93.01
84136;BME280;74238;50.566;7.262;2023-12-14T08:08:48;100841.91;;;5.77;93.08
84136;BME280;74238;50.566;7.262;2023-12-14T08:11:14;100845.47;;;5.81;92.37
84136;BME280;74238;50.566;7.262;2023-12-14T08:13:40;100884.13;;;6.04;93.28
84136;BME280;74238;50.566;7.262;2023-12-14T08:16:06;100894.59;;;6.04;93.20
84136;BME280;74238;50.566;7.262;2023-12-14T08:18:31;100851.56;;;5.78;92.89
84136;BME280;74238;50.566;7.262;2023-12-14T08:20:57;100890.19;;;5.99;92.66
84136;BME280;74238;50.566;7.262;2023-12-14T08:23:22;100894.59;;;6.04;93.28
84136;BME280;74238;50.566;7.262;2023-12-14T08:25:48;100904.22;;;6.05;92.62
84136;BME280;74238;50.566;7.262;2023-12-14T08:28:13;100909.44;;;6.05;92.88
84136;BME280;74238;50.566;7.262;2023-12-14T08:30:39;100846.13;;;5.60;92.98
84136;BME280;74238;50.566;7.262;2023-12-14T08:33:04;100879.44;;;5.73;92.59
84136;BME280;74238;50.566;7.262;2023-12-14T08:35:29;100935.66;;;6.03;92.77
84136;BME280;74238;50.566;7.262;2023-12-14T08:37:55;100876.78;;;5.69;92.62
84136;BME280;74238;50.566;7.262;2023-12-14T08:40:20;100930.41;;;6.03;92.57
84136;BME280;74238;50.566;7.262;2023-12-14T08:42:47;100945.28;;;6.03;92.88
84136;BME280;74238;50.566;7.262;2023-12-14T08:45:12;100955.69;;;5.99;92.34
84136;BME280;74238;50.566;7.262;2023-12-14T08:47:37;100957.44;;;5.97;92.78
84136;BME280;74238;50.566;7.262;2023-12-14T08:50:03;100960.03;;;5.96;92.48
84136;BME280;74238;50.566;7.262;2023-12-14T08:52:29;100967.91;;;5.96;92.87
84136;BME280;74238;50.566;7.262;2023-12-14T08:54:54;100971.38;;;5.93;92.31
84136;BME280;74238;50.566;7.262;2023-12-14T08:57:19;100925.59;;;5.61;92.29
84136;BME280;74238;50.566;7.262;2023-12-14T08:59:45;100982.66;;;5.91;93.18
84136;BME280;74238;50.566;7.262;2023-12-14T09:02:10;100983.50;;;5.88;92.27
84136;BME280;74238;50.566;7.262;2023-12-14T09:04:36;101001.84;;;5.87;92.94
84136;BME280;74238;50.566;7.262;2023-12-14T09:07:01;100985.13;;;5.77;92.59
84136;BME280;74238;50.566;7.262;2023-12-14T09:09:27;101008.78;;;5.83;92.03
84136;BME280;74238;50.566;7.262;2023-12-14T09:11:52;101016.66;;;5.83;92.98
84136;BME280;74238;50.566;7.262;2023-12-14T09:14:17;101011.38;;;5.80;93.17
84136;BME280;74238;50.566;7.262;2023-12-14T09:16:42;101005.13;;;5.69;92.35
84136;BME280;74238;50.566;7.262;2023-12-14T09:19:08;101018.38;;;5.81;93.07
84136;BME280;74238;50.566;7.262;2023-12-14T09:21:33;101022.69;;;5.77;92.87
84136;BME280;74238;50.566;7.262;2023-12-14T09:23:58;101028.81;;;5.78;92.52
84136;BME280;74238;50.566;7.262;2023-12-14T09:26:24;101040.19;;;5.78;93.28
84136;BME280;74238;50.566;7.262;2023-12-14T09:28:49;101030.47;;;5.70;92.84
84136;BME280;74238;50.566;7.262;2023-12-14T09:31:14;101046.31;;;5.79;92.92
84136;BME280;74238;50.566;7.262;2023-12-14T09:33:41;101048.94;;;5.79;93.30
84136;BME280;74238;50.566;7.262;2023-12-14T09:36:06;101062.88;;;5.78;92.81
84136;BME280;74238;50.566;7.262;2023-12-14T09:38:31;101063.72;;;5.74;93.07
84136;BME280;74238;50.566;7.262;2023-12-14T09:40:57;101070.72;;;5.78;92.65
84136;BME280;74238;50.566;7.262;2023-12-14T09:43:22;101062.00;;;5.77;92.78
84136;BME280;74238;50.566;7.262;2023-12-14T09:45:49;101071.59;;;5.77;93.25
84136;BME280;74238;50.566;7.262;2023-12-14T09:48:15;101074.25;;;5.78;92.24
84136;BME280;74238;50.566;7.262;2023-12-14T09:50:40;101068.97;;;5.77;93.11
84136;BME280;74238;50.566;7.262;2023-12-14T09:53:07;101081.22;;;5.76;92.19
84136;BME280;74238;50.566;7.262;2023-12-14T09:55:33;101033.66;;;5.47;92.64
84136;BME280;74238;50.566;7.262;2023-12-14T09:57:58;101089.06;;;5.78;92.18
84136;BME280;74238;50.566;7.262;2023-12-14T10:00:37;101103.06;;;5.80;92.56
84136;BME280;74238;50.566;7.262;2023-12-14T10:03:22;101103.97;;;5.82;92.34
84136;BME280;74238;50.566;7.262;2023-12-14T10:05:49;101103.97;;;5.82;92.81
84136;BME280;74238;50.566;7.262;2023-12-14T10:08:18;101109.22;;;5.82;92.04
84136;BME280;74238;50.566;7.262;2023-12-14T10:10:46;101114.47;;;5.82;92.42
84136;BME280;74238;50.566;7.262;2023-12-14T10:13:14;101113.59;;;5.82;91.82
84136;BME280;74238;50.566;7.262;2023-12-14T10:15:46;101117.84;;;5.75;92.45
84136;BME280;74238;50.566;7.262;2023-12-14T10:18:14;101115.31;;;5.80;92.69
84136;BME280;74238;50.566;7.262;2023-12-14T10:20:42;101080.03;;;5.54;91.85
84136;BME280;74238;50.566;7.262;2023-12-14T10:23:10;101111.78;;;5.76;92.17
84136;BME280;74238;50.566;7.262;2023-12-14T10:25:35;101122.31;;;5.82;91.95
84136;BME280;74238;50.566;7.262;2023-12-14T10:28:01;101061.59;;;5.47;92.30
84136;BME280;74238;50.566;7.262;2023-12-14T10:30:28;101131.06;;;5.83;91.81
84136;BME280;74238;50.566;7.262;2023-12-14T10:32:53;101123.19;;;5.83;92.45
84136;BME280;74238;50.566;7.262;2023-12-14T10:35:19;101089.69;;;5.59;92.03
84136;BME280;74238;50.566;7.262;2023-12-14T10:37:49;101135.47;;;5.85;91.27
84136;BME280;74238;50.566;7.262;2023-12-14T10:40:15;101149.41;;;5.83;91.44
84136;BME280;74238;50.566;7.262;2023-12-14T10:42:44;101152.91;;;5.83;91.88
84136;BME280;74238;50.566;7.262;2023-12-14T10:45:14;101147.66;;;5.82;91.27
84136;BME280;74238;50.566;7.262;2023-12-14T10:47:44;101158.09;;;5.80;91.14
84136;BME280;74238;50.566;7.262;2023-12-14T10:50:10;101120.31;;;5.63;91.91
84136;BME280;74238;50.566;7.262;2023-12-14T10:52:40;101145.78;;;5.73;91.70
84136;BME280;74238;50.566;7.262;2023-12-14T10:57:51;101167.84;;;5.90;91.37
84136;BME280;74238;50.566;7.262;2023-12-14T11:00:17;101137.09;;;5.75;91.68
84136;BME280;74238;50.566;7.262;2023-12-14T11:02:45;101170.59;;;5.96;91.17
84136;BME280;74238;50.566;7.262;2023-12-14T11:05:12;101116.00;;;5.66;90.87
84136;BME280;74238;50.566;7.262;2023-12-14T11:07:49;101175.84;;;5.99;90.86
84136;BME280;74238;50.566;7.262;2023-12-14T11:10:15;101128.25;;;5.69;90.99
84136;BME280;74238;50.566;7.262;2023-12-14T11:13:01;101127.34;;;5.67;91.11
84136;BME280;74238;50.566;7.262;2023-12-14T11:15:33;101191.66;;;6.03;90.85
84136;BME280;74238;50.566;7.262;2023-12-14T11:23:10;101205.47;;;5.92;90.91
84136;BME280;74238;50.566;7.262;2023-12-14T11:25:37;101207.13;;;5.87;90.38
84136;BME280;74238;50.566;7.262;2023-12-14T11:28:09;101196.50;;;5.78;91.33
84136;BME280;74238;50.566;7.262;2023-12-14T11:30:35;101219.25;;;5.81;91.72
84136;BME280;74238;50.566;7.262;2023-12-14T11:33:00;101192.75;;;5.61;91.41
84136;BME280;74238;50.566;7.262;2023-12-14T11:35:25;101203.22;;;5.61;90.89
84136;BME280;74238;50.566;7.262;2023-12-14T11:37:51;101231.38;;;5.74;90.73
84136;BME280;74238;50.566;7.262;2023-12-14T11:40:16;101146.72;;;5.19;91.59
84136;BME280;74238;50.566;7.262;2023-12-14T11:43:00;101234.88;;;5.73;90.78
84136;BME280;74238;50.566;7.262;2023-12-14T11:45:26;101209.28;;;5.57;91.25
84136;BME280;74238;50.566;7.262;2023-12-14T11:47:52;101161.81;;;5.37;91.22
84136;BME280;74238;50.566;7.262;2023-12-14T11:50:18;101243.72;;;5.83;90.93
84136;BME280;74238;50.566;7.262;2023-12-14T11:52:43;101242.91;;;5.85;90.26
84136;BME280;74238;50.566;7.262;2023-12-14T11:55:12;101248.13;;;5.85;90.87
84136;BME280;74238;50.566;7.262;2023-12-14T11:57:37;101192.66;;;5.54;90.10
84136;BME280;74238;50.566;7.262;2023-12-14T12:00:04;101258.63;;;5.85;90.68
84136;BME280;74238;50.566;7.262;2023-12-14T12:02:29;101258.63;;;5.85;90.07
84136;BME280;74238;50.566;7.262;2023-12-14T12:04:55;101250.72;;;5.82;89.32
84136;BME280;74238;50.566;7.262;2023-12-14T12:07:20;101258.53;;;5.81;89.72
84136;BME280;74238;50.566;7.262;2023-12-14T12:09:46;101232.03;;;5.61;89.72
84136;BME280;74238;50.566;7.262;2023-12-14T12:12:12;101250.59;;;5.73;90.02
84136;BME280;74238;50.566;7.262;2023-12-14T12:14:39;101259.38;;;5.78;90.70
84136;BME280;74238;50.566;7.262;2023-12-14T12:17:05;101260.28;;;5.80;90.87
84136;BME280;74238;50.566;7.262;2023-12-14T12:19:35;101226.88;;;5.65;90.10
84136;BME280;74238;50.566;7.262;2023-12-14T12:22:01;101256.88;;;5.84;90.51
84136;BME280;74238;50.566;7.262;2023-12-14T12:24:27;101264.78;;;5.87;90.72
84136;BME280;74238;50.566;7.262;2023-12-14T12:26:53;101265.69;;;5.89;90.82
84136;BME280;74238;50.566;7.262;2023-12-14T12:29:18;101270.94;;;5.89;90.31
84136;BME280;74238;50.566;7.262;2023-12-14T12:31:43;101203.97;;;5.52;89.89
84136;BME280;74238;50.566;7.262;2023-12-14T12:34:11;101264.75;;;5.86;90.09
84136;BME280;74238;50.566;7.262;2023-12-14T12:36:36;101250.59;;;5.74;89.07
84136;BME280;74238;50.566;7.262;2023-12-14T12:39:01;101237.31;;;5.64;90.20
84136;BME280;74238;50.566;7.262;2023-12-14T12:41:28;101266.44;;;5.82;89.05
84136;BME280;74238;50.566;7.262;2023-12-14T12:43:53;101261.16;;;5.79;88.91
84136;BME280;74238;50.566;7.262;2023-12-14T12:46:18;101263.78;;;5.79;89.42
84136;BME280;74238;50.566;7.262;2023-12-14T12:48:44;101269.84;;;5.78;89.05
84136;BME280;74238;50.566;7.262;2023-12-14T12:51:12;101237.16;;;5.51;89.31
84136;BME280;74238;50.566;7.262;2023-12-14T12:53:37;101277.66;;;5.73;89.62
84136;BME280;74238;50.566;7.262;2023-12-14T12:56:03;101279.41;;;5.74;89.39
84136;BME280;74238;50.566;7.262;2023-12-14T12:58:28;101283.78;;;5.74;89.30
84136;BME280;74238;50.566;7.262;2023-12-14T13:00:53;101281.13;;;5.71;88.33